createdAt,value
2023-03-21T00:02:19.586Z,82.56
2023-03-21T00:07:21.351Z,83.04
2023-03-21T00:12:23.717Z,83.18
2023-03-21T00:17:32.469Z,84.30
2023-03-21T00:22:35.807Z,84.34
2023-03-21T00:28:05.249Z,84.41
2023-03-21T00:33:03.548Z,84.91
2023-03-21T00:38:09.859Z,84.67
2023-03-21T00:43:14.463Z,84.81
2023-03-21T00:48:16.268Z,84.91
2023-03-21T00:53:18.929Z,84.64
2023-03-21T00:58:21.307Z,84.91
2023-03-21T01:03:26.571Z,84.95
2023-03-21T01:08:33.189Z,84.92
2023-03-21T01:13:53.769Z,84.95
2023-03-21T01:18:59.601Z,84.99
2023-03-21T01:24:01.831Z,84.93
2023-03-21T01:29:05.520Z,84.67
2023-03-21T01:34:07.624Z,84.52
2023-03-21T01:39:09.380Z,84.34
2023-03-21T01:44:16.881Z,83.80
2023-03-21T01:49:34.459Z,83.85
2023-03-21T01:54:57.313Z,83.63
2023-03-21T02:00:12.086Z,83.52
2023-03-21T02:05:40.543Z,83.50
2023-03-21T02:10:45.655Z,83.41
2023-03-21T02:16:00.015Z,83.03
2023-03-21T02:21:40.312Z,82.95
2023-03-21T02:27:21.814Z,83.07
2023-03-21T02:32:38.377Z,82.96
2023-03-21T02:37:55.202Z,83.15
2023-03-21T02:43:28.076Z,82.88
2023-03-21T02:48:50.632Z,83.12
2023-03-21T02:54:26.112Z,83.40
2023-03-21T02:59:25.103Z,83.53
2023-03-21T03:04:28.991Z,83.54
2023-03-21T03:09:45.172Z,83.49
2023-03-21T03:15:09.823Z,83.73
2023-03-21T03:20:38.955Z,83.82
2023-03-21T03:25:49.723Z,83.71
2023-03-21T03:31:08.099Z,84.14
2023-03-21T03:36:33.564Z,84.44
2023-03-21T03:42:12.565Z,84.84
2023-03-21T03:47:29.915Z,85.05
2023-03-21T03:52:40.070Z,84.26
2023-03-21T03:57:46.503Z,84.45
2023-03-21T04:02:48.607Z,84.46
2023-03-21T04:07:53.628Z,84.35
2023-03-21T04:13:02.721Z,84.08
2023-03-21T04:18:14.719Z,83.97
2023-03-21T04:23:21.618Z,83.95
2023-03-21T04:28:23.776Z,83.89
2023-03-21T04:33:44.720Z,84.18
2023-03-21T04:38:48.546Z,84.17
2023-03-21T04:43:52.454Z,83.98
2023-03-21T04:48:54.605Z,84.07
2023-03-21T04:53:57.599Z,83.91
2023-03-21T04:59:08.381Z,83.78
2023-03-21T05:04:12.094Z,83.90
2023-03-21T05:09:14.144Z,83.86
2023-03-21T05:14:18.864Z,83.84
2023-03-21T05:19:22.755Z,83.90
2023-03-21T05:24:24.949Z,83.85
2023-03-21T05:29:27.780Z,83.92
2023-03-21T05:34:37.529Z,83.75
2023-03-21T05:39:39.385Z,83.95
2023-03-21T05:44:46.508Z,83.63
2023-03-21T05:49:49.852Z,83.47
2023-03-21T05:54:52.350Z,83.54
2023-03-21T05:59:56.577Z,83.73
2023-03-21T06:04:58.441Z,83.56
2023-03-21T06:10:01.404Z,83.53
2023-03-21T06:15:06.146Z,83.25
2023-03-21T06:20:34.191Z,83.21
2023-03-21T06:25:41.683Z,83.09
2023-03-21T06:30:43.660Z,83.07
2023-03-21T06:35:58.848Z,83.12
2023-03-21T06:41:04.649Z,82.90
2023-03-21T06:46:08.448Z,82.79
2023-03-21T06:51:12.399Z,83.00
2023-03-21T06:56:16.356Z,83.23
2023-03-21T07:01:19.006Z,83.42
2023-03-21T07:06:30.279Z,83.26
2023-03-21T07:11:32.466Z,83.11
2023-03-21T07:16:34.410Z,83.17
2023-03-21T07:21:36.140Z,83.28
2023-03-21T07:26:38.516Z,83.41
2023-03-21T07:31:40.616Z,83.26
2023-03-21T07:36:42.881Z,83.32
2023-03-21T07:41:44.672Z,83.10
2023-03-21T07:46:57.261Z,82.69
2023-03-21T07:52:00.072Z,82.43
2023-03-21T07:57:01.950Z,82.37
2023-03-21T08:02:03.700Z,82.47
2023-03-21T08:07:05.473Z,81.96
2023-03-21T08:12:08.509Z,82.09
2023-03-21T08:17:10.511Z,81.68
2023-03-21T08:22:12.453Z,81.51
2023-03-21T08:27:14.202Z,80.97
2023-03-21T08:32:19.514Z,81.20
2023-03-21T08:37:21.738Z,81.01
2023-03-21T08:42:23.577Z,80.37
2023-03-21T08:47:29.452Z,78.85
2023-03-21T08:52:31.380Z,78.17
2023-03-21T08:57:33.391Z,77.34
2023-03-21T09:02:35.379Z,78.51
2023-03-21T09:07:39.476Z,78.06
2023-03-21T09:12:41.324Z,78.60
2023-03-21T09:17:44.103Z,77.16
2023-03-21T09:22:47.644Z,76.39
2023-03-21T09:27:49.925Z,74.98
2023-03-21T09:32:53.443Z,75.87
2023-03-21T09:37:59.533Z,75.84
2023-03-21T09:43:11.888Z,74.16
2023-03-21T09:48:31.265Z,74.60
2023-03-21T09:53:37.633Z,74.89
2023-03-21T09:58:46.720Z,75.54
2023-03-21T10:03:50.601Z,74.66
2023-03-21T10:08:53.152Z,74.48
2023-03-21T10:13:59.683Z,75.49
2023-03-21T10:19:08.184Z,74.75
2023-03-21T10:24:14.240Z,73.42
2023-03-21T10:29:18.537Z,73.85
2023-03-21T10:34:28.527Z,73.65
2023-03-21T10:39:41.214Z,73.28
2023-03-21T10:44:48.594Z,71.53
2023-03-21T10:50:06.778Z,72.64
2023-03-21T10:55:12.566Z,73.01
2023-03-21T11:00:21.933Z,69.18
2023-03-21T11:05:40.214Z,68.48
2023-03-21T11:11:00.973Z,66.47
2023-03-21T11:16:11.945Z,66.97
2023-03-21T11:21:16.428Z,66.98
2023-03-21T11:26:36.771Z,68.40
2023-03-21T11:31:40.959Z,68.67
2023-03-21T11:36:42.631Z,68.15
2023-03-21T11:41:48.052Z,67.55
2023-03-21T11:46:49.718Z,68.40
2023-03-21T11:52:06.495Z,68.34
2023-03-21T11:57:34.060Z,69.68
2023-03-21T12:02:55.780Z,69.10
2023-03-21T12:08:12.840Z,69.63
2023-03-21T12:13:26.631Z,68.47
2023-03-21T12:19:23.231Z,69.71
2023-03-21T12:24:33.204Z,70.27
2023-03-21T12:29:50.441Z,70.40
2023-03-21T12:35:13.636Z,70.61
2023-03-21T12:40:39.522Z,70.66
2023-03-21T12:45:49.114Z,69.81
2023-03-21T12:50:53.676Z,69.51
2023-03-21T12:56:01.025Z,68.25
2023-03-21T13:01:05.456Z,68.75
2023-03-21T13:06:10.916Z,68.27
2023-03-21T13:11:21.290Z,67.28
2023-03-21T13:16:51.863Z,65.95
2023-03-21T13:22:28.453Z,65.49
2023-03-21T13:27:32.103Z,65.58
2023-03-21T13:32:39.259Z,65.12
2023-03-21T13:37:49.239Z,64.43
2023-03-21T13:42:59.652Z,63.71
2023-03-21T13:48:07.419Z,63.32
2023-03-21T13:53:14.900Z,63.37
2023-03-21T13:58:31.728Z,62.56
2023-03-21T14:03:35.463Z,62.83
2023-03-21T14:08:41.221Z,62.38
2023-03-21T14:13:51.340Z,61.84
2023-03-21T14:19:06.597Z,61.55
2023-03-21T14:24:13.300Z,60.76
2023-03-21T14:29:26.931Z,60.86
2023-03-21T14:34:31.984Z,61.15
2023-03-21T14:39:33.739Z,62.08
2023-03-21T14:44:54.876Z,61.81
2023-03-21T14:49:58.751Z,61.42
2023-03-21T14:55:03.330Z,63.17
2023-03-21T15:00:17.159Z,65.30
2023-03-21T15:05:29.493Z,66.83
2023-03-21T15:10:32.155Z,67.63
2023-03-21T15:15:34.031Z,68.22
2023-03-21T15:20:38.334Z,68.62
2023-03-21T15:25:41.039Z,69.02
2023-03-21T15:30:51.279Z,69.20
2023-03-21T15:35:55.645Z,69.58
2023-03-21T15:41:19.287Z,70.25
2023-03-21T15:46:50.895Z,70.52
2023-03-21T15:51:58.038Z,70.97
2023-03-21T15:57:04.592Z,71.21
2023-03-21T16:02:16.528Z,71.48
2023-03-21T16:07:18.708Z,71.96
2023-03-21T16:12:20.433Z,72.17
2023-03-21T16:17:29.340Z,72.16
2023-03-21T16:22:34.931Z,72.33
2023-03-21T16:27:36.605Z,72.26
2023-03-21T16:32:38.320Z,72.24
2023-03-21T16:37:40.922Z,72.42
2023-03-21T16:42:43.861Z,72.70
2023-03-21T16:47:45.757Z,73.02
2023-03-21T16:52:48.174Z,73.51
2023-03-21T16:57:52.327Z,73.98
2023-03-21T17:02:56.672Z,74.53
2023-03-21T17:08:02.051Z,75.08
2023-03-21T17:13:03.756Z,75.48
2023-03-21T17:18:05.943Z,75.57
2023-03-21T17:23:08.060Z,75.50
2023-03-21T17:28:09.809Z,75.48
2023-03-21T17:33:11.847Z,75.63
2023-03-21T17:38:17.566Z,76.05
2023-03-21T17:43:21.227Z,76.37
2023-03-21T17:48:23.061Z,76.28
2023-03-21T17:53:26.629Z,76.44
2023-03-21T17:58:28.529Z,76.62
2023-03-21T18:03:30.347Z,76.64
2023-03-21T18:08:33.091Z,76.84
2023-03-21T18:13:34.828Z,76.68
2023-03-21T18:18:37.794Z,76.73
2023-03-21T18:23:41.099Z,76.69
2023-03-21T18:28:43.623Z,76.73
2023-03-21T18:33:48.098Z,76.76
2023-03-21T18:38:50.333Z,77.02
2023-03-21T18:44:05.274Z,77.04
2023-03-21T18:49:53.694Z,77.24
2023-03-21T18:54:33.137Z,77.31
2023-03-21T18:59:35.933Z,77.45
2023-03-21T19:04:38.147Z,77.61
2023-03-21T19:10:01.465Z,77.65
2023-03-21T19:15:03.159Z,77.95
2023-03-21T19:20:05.862Z,78.25
2023-03-21T19:25:09.406Z,78.29
2023-03-21T19:30:15.445Z,78.59
2023-03-21T19:35:19.372Z,78.42
2023-03-21T19:40:23.034Z,78.30
2023-03-21T19:45:26.197Z,78.20
2023-03-21T19:55:54.362Z,78.09
2023-03-21T20:00:56.425Z,78.02
2023-03-21T20:06:10.252Z,77.82
2023-03-21T20:11:12.377Z,77.93
2023-03-21T20:16:14.119Z,78.13
2023-03-21T20:21:18.517Z,78.26
2023-03-21T20:26:26.140Z,78.02
2023-03-21T20:31:27.915Z,78.49
2023-03-21T20:36:39.400Z,78.79
2023-03-21T20:41:43.470Z,78.79
2023-03-21T20:46:47.110Z,78.84
2023-03-21T20:57:14.001Z,79.90
2023-03-21T21:02:16.787Z,80.10
2023-03-21T21:07:22.468Z,79.83
2023-03-21T21:12:28.562Z,80.08
2023-03-21T21:18:02.104Z,80.07
2023-03-21T21:22:59.978Z,80.01
2023-03-21T21:28:03.579Z,80.14
2023-03-21T21:33:05.536Z,80.14
2023-03-21T21:38:07.556Z,80.33
2023-03-21T21:43:09.389Z,80.69
2023-03-21T21:48:11.847Z,80.94
2023-03-21T21:53:19.114Z,81.34
2023-03-21T21:58:21.930Z,81.25
2023-03-21T22:03:24.342Z,81.02
2023-03-21T22:08:26.384Z,81.05
2023-03-21T22:13:36.705Z,80.92
2023-03-21T22:18:38.657Z,80.89
2023-03-21T22:23:43.580Z,80.62
2023-03-21T22:28:45.281Z,80.66
2023-03-21T22:33:49.878Z,80.57
2023-03-21T22:38:52.052Z,80.36
2023-03-21T22:43:55.357Z,80.28
2023-03-21T22:48:57.407Z,80.08
2023-03-21T22:54:00.877Z,79.82
2023-03-21T22:59:02.618Z,79.97
2023-03-21T23:04:08.054Z,80.03
2023-03-21T23:09:10.538Z,79.74
2023-03-21T23:14:15.177Z,80.18
2023-03-21T23:19:25.435Z,80.29
2023-03-21T23:24:27.294Z,80.50
2023-03-21T23:29:29.098Z,81.10
2023-03-21T23:34:31.683Z,81.04
2023-03-21T23:39:33.787Z,81.96
2023-03-21T23:44:35.736Z,81.83
2023-03-21T23:49:40.880Z,81.66
2023-03-21T23:54:42.559Z,81.99
2023-03-21T23:59:46.613Z,81.76
